Time;durP1;ratioP1;P1;durP2;ratioP2;P2;SDS_P1;SDS_P2;PMS_P1;PMS_P2;Temp;Humidity;BMP_temperature;BMP_pressure;BME280_temperature;BME280_humidity;BME280_pressure;Samples;Min_cycle;Max_cycle;Signal;HPM_P1;HPM_P2
2023/07/13 00:02:06;;;;;;;3.83;2.30;;;;;;;;;;5153324;27;20676;-88
2023/07/13 00:04:33;;;;;;;2.38;2.28;;;;;;;;;;5153668;27;20287;-88
2023/07/13 00:07:00;;;;;;;2.80;2.60;;;;;;;;;;5154895;27;20287;-88
2023/07/13 00:09:27;;;;;;;2.63;2.42;;;;;;;;;;5154409;27;20195;-89
2023/07/13 00:11:54;;;;;;;10.43;2.30;;;;;;;;;;5154741;27;20224;-88
2023/07/13 00:14:22;;;;;;;2.58;2.38;;;;;;;;;;5154981;27;20283;-88
2023/07/13 00:16:50;;;;;;;2.28;2.17;;;;;;;;;;5154289;27;20288;-88
2023/07/13 00:19:17;;;;;;;2.95;2.72;;;;;;;;;;5152870;27;20709;-87
2023/07/13 00:21:44;;;;;;;2.00;1.90;;;;;;;;;;5152903;27;20673;-87
2023/07/13 00:24:14;;;;;;;2.97;2.70;;;;;;;;;;5153121;27;20677;-87
2023/07/13 00:26:45;;;;;;;2.55;2.45;;;;;;;;;;5154008;27;20295;-87
2023/07/13 00:29:12;;;;;;;3.45;2.85;;;;;;;;;;5154451;27;20196;-89
2023/07/13 00:31:39;;;;;;;4.72;2.25;;;;;;;;;;5169862;27;20259;-87
2023/07/13 00:34:08;;;;;;;2.88;2.67;;;;;;;;;;5166374;27;20211;-88
2023/07/13 00:36:35;;;;;;;2.28;2.17;;;;;;;;;;5155140;27;20227;-87
2023/07/13 00:39:03;;;;;;;2.55;2.45;;;;;;;;;;5154380;27;20245;-88
2023/07/13 00:41:30;;;;;;;2.40;2.30;;;;;;;;;;5153862;27;20192;-88
2023/07/13 00:43:57;;;;;;;3.13;2.42;;;;;;;;;;5153732;27;20192;-88
2023/07/13 00:46:25;;;;;;;2.20;2.10;;;;;;;;;;5152978;27;20215;-87
2023/07/13 00:48:53;;;;;;;2.90;2.63;;;;;;;;;;5153081;27;20189;-88
2023/07/13 00:51:23;;;;;;;3.20;2.90;;;;;;;;;;5153387;27;20617;-88
2023/07/13 00:53:51;;;;;;;2.13;2.03;;;;;;;;;;5153120;27;20641;-89
2023/07/13 00:56:18;;;;;;;2.58;2.38;;;;;;;;;;5151608;27;20310;-87
2023/07/13 00:58:45;;;;;;;2.92;2.67;;;;;;;;;;5153215;27;20200;-87
2023/07/13 01:01:13;;;;;;;2.78;2.60;;;;;;;;;;5154831;27;20562;-88
2023/07/13 01:03:41;;;;;;;2.47;2.33;;;;;;;;;;5157331;27;20192;-86
2023/07/13 01:06:08;;;;;;;2.35;2.25;;;;;;;;;;5157540;27;20268;-89
2023/07/13 01:08:36;;;;;;;4.65;2.60;;;;;;;;;;5157283;27;20201;-88
2023/07/13 01:11:03;;;;;;;4.03;2.65;;;;;;;;;;5156883;27;20198;-87
2023/07/13 01:13:31;;;;;;;2.47;2.28;;;;;;;;;;5156878;27;20192;-88
2023/07/13 01:16:00;;;;;;;2.70;2.50;;;;;;;;;;5157747;27;20571;-87
2023/07/13 01:18:27;;;;;;;3.67;3.08;;;;;;;;;;5157369;27;20603;-88
2023/07/13 01:20:57;;;;;;;2.67;2.47;;;;;;;;;;5159504;27;20695;-88
2023/07/13 01:23:24;;;;;;;2.38;2.10;;;;;;;;;;5158396;27;20196;-89
2023/07/13 01:25:52;;;;;;;2.85;2.63;;;;;;;;;;5157888;27;20654;-87
2023/07/13 01:28:19;;;;;;;2.53;2.40;;;;;;;;;;5157264;27;20220;-87
2023/07/13 01:30:46;;;;;;;2.40;2.30;;;;;;;;;;5157228;27;20204;-87
2023/07/13 01:33:14;;;;;;;2.90;2.60;;;;;;;;;;5157437;27;20258;-86
2023/07/13 01:35:41;;;;;;;2.95;2.75;;;;;;;;;;5161609;27;20203;-87
2023/07/13 01:38:09;;;;;;;4.03;2.70;;;;;;;;;;5158532;27;20247;-86
2023/07/13 01:40:36;;;;;;;3.08;2.63;;;;;;;;;;5157128;27;20206;-88
2023/07/13 01:43:03;;;;;;;3.33;2.67;;;;;;;;;;5156755;27;20200;-88
2023/07/13 01:45:30;;;;;;;2.67;2.47;;;;;;;;;;5157984;27;20326;-86
2023/07/13 01:47:57;;;;;;;2.70;2.50;;;;;;;;;;5168062;27;20692;-87
2023/07/13 01:50:25;;;;;;;2.95;2.38;;;;;;;;;;5170841;27;20208;-86
2023/07/13 01:52:52;;;;;;;2.92;2.70;;;;;;;;;;5167762;27;20253;-88
2023/07/13 01:55:20;;;;;;;2.53;2.33;;;;;;;;;;5166576;27;20192;-88
2023/07/13 01:57:47;;;;;;;3.15;2.90;;;;;;;;;;5165826;27;20251;-87
2023/07/13 02:00:14;;;;;;;2.78;2.58;;;;;;;;;;5159114;27;20195;-87
2023/07/13 02:02:41;;;;;;;2.90;2.70;;;;;;;;;;5155143;27;20192;-88
2023/07/13 02:05:08;;;;;;;3.22;3.03;;;;;;;;;;5155549;27;20625;-87
2023/07/13 02:07:35;;;;;;;2.70;2.55;;;;;;;;;;5156038;27;20245;-87
2023/07/13 02:10:02;;;;;;;2.72;2.53;;;;;;;;;;5156048;27;20223;-86
2023/07/13 02:12:30;;;;;;;6.18;3.20;;;;;;;;;;5155049;27;20215;-87
2023/07/13 02:14:57;;;;;;;2.72;2.53;;;;;;;;;;5164539;27;20245;-87
2023/07/13 02:17:24;;;;;;;4.70;3.92;;;;;;;;;;5166879;27;20223;-87
2023/07/13 02:19:51;;;;;;;3.10;2.90;;;;;;;;;;5167078;27;20196;-85
2023/07/13 02:22:18;;;;;;;3.40;3.10;;;;;;;;;;5175932;27;20204;-87
2023/07/13 02:24:44;;;;;;;2.13;2.03;;;;;;;;;;5168364;27;20665;-87
2023/07/13 02:27:11;;;;;;;3.10;2.97;;;;;;;;;;5155534;27;20573;-89
2023/07/13 02:29:40;;;;;;;4.07;2.97;;;;;;;;;;5156043;27;20203;-87
2023/07/13 02:32:07;;;;;;;2.55;2.45;;;;;;;;;;5156785;27;20199;-87
2023/07/13 02:34:33;;;;;;;3.55;3.28;;;;;;;;;;5156581;27;20219;-87
2023/07/13 02:37:00;;;;;;;2.92;2.72;;;;;;;;;;5155406;27;20774;-87
2023/07/13 02:39:27;;;;;;;3.30;3.00;;;;;;;;;;5156561;27;20206;-87
2023/07/13 02:41:55;;;;;;;4.82;3.40;;;;;;;;;;5155700;27;20259;-86
2023/07/13 02:44:21;;;;;;;3.17;2.85;;;;;;;;;;5155678;27;20306;-87
2023/07/13 02:46:50;;;;;;;5.75;3.05;;;;;;;;;;5154976;27;20200;-87
2023/07/13 02:49:17;;;;;;;6.30;4.95;;;;;;;;;;5154435;27;20186;-89
2023/07/13 02:51:43;;;;;;;4.15;3.28;;;;;;;;;;5154672;27;20199;-88
2023/07/13 02:54:13;;;;;;;3.50;2.53;;;;;;;;;;5154681;27;20199;-86
2023/07/13 02:56:40;;;;;;;4.63;2.88;;;;;;;;;;5154691;27;20200;-88
2023/07/13 02:59:07;;;;;;;2.80;2.60;;;;;;;;;;5155343;27;20282;-88
2023/07/13 03:01:35;;;;;;;5.20;2.83;;;;;;;;;;5154556;27;20190;-87
2023/07/13 03:04:03;;;;;;;4.22;3.53;;;;;;;;;;5155046;27;20677;-88
2023/07/13 03:06:32;;;;;;;3.20;2.97;;;;;;;;;;5157592;27;20191;-88
2023/07/13 03:08:59;;;;;;;3.58;3.28;;;;;;;;;;5157646;27;20201;-87
2023/07/13 03:11:26;;;;;;;2.88;2.67;;;;;;;;;;5173890;27;20215;-87
2023/07/13 03:13:54;;;;;;;4.72;3.10;;;;;;;;;;5176804;27;20204;-88
2023/07/13 03:16:21;;;;;;;3.88;3.58;;;;;;;;;;5175943;27;20194;-88
2023/07/13 03:18:48;;;;;;;3.58;3.25;;;;;;;;;;5172046;27;20227;-87
2023/07/13 03:21:17;;;;;;;4.75;3.35;;;;;;;;;;5170832;27;20199;-87
2023/07/13 03:23:44;;;;;;;4.40;3.53;;;;;;;;;;5169149;27;20280;-87
2023/07/13 03:26:12;;;;;;;4.47;3.85;;;;;;;;;;5161156;27;20607;-88
2023/07/13 03:28:39;;;;;;;10.85;3.55;;;;;;;;;;5155968;27;20685;-87
2023/07/13 03:31:08;;;;;;;3.88;3.58;;;;;;;;;;5153750;27;20192;-87
2023/07/13 03:33:35;;;;;;;4.03;3.40;;;;;;;;;;5154001;27;20196;-88
2023/07/13 03:36:02;;;;;;;3.33;3.03;;;;;;;;;;5153578;27;20279;-88
2023/07/13 03:38:30;;;;;;;33.03;4.55;;;;;;;;;;5153120;27;20234;-88
2023/07/13 03:40:57;;;;;;;5.07;3.55;;;;;;;;;;5152784;27;20256;-89
2023/07/13 03:43:24;;;;;;;11.73;4.82;;;;;;;;;;5153373;27;20196;-87
2023/07/13 03:45:52;;;;;;;10.07;3.28;;;;;;;;;;5153245;27;20670;-88
2023/07/13 03:48:19;;;;;;;7.22;3.83;;;;;;;;;;5153962;27;20200;-88
2023/07/13 03:50:46;;;;;;;5.65;3.92;;;;;;;;;;5153810;27;20595;-88
2023/07/13 03:53:13;;;;;;;45.05;21.33;;;;;;;;;;5153961;27;20188;-88
2023/07/13 03:55:42;;;;;;;6.65;4.88;;;;;;;;;;5153013;27;20645;-87
2023/07/13 03:58:24;;;;;;;6.15;3.78;;;;;;;;;;5153293;27;20276;-87
2023/07/13 04:00:51;;;;;;;4.47;3.70;;;;;;;;;;5150001;27;20200;-87
2023/07/13 04:03:18;;;;;;;3.72;3.50;;;;;;;;;;5153682;27;20196;-88
2023/07/13 04:05:45;;;;;;;7.22;3.95;;;;;;;;;;5156189;27;20193;-89
2023/07/13 04:08:12;;;;;;;5.35;4.35;;;;;;;;;;5158414;27;20223;-87
2023/07/13 04:10:41;;;;;;;3.85;3.63;;;;;;;;;;5171045;27;20225;-88
2023/07/13 04:13:08;;;;;;;4.55;3.75;;;;;;;;;;5162152;27;20292;-88
2023/07/13 04:15:35;;;;;;;5.18;4.70;;;;;;;;;;5154381;27;20231;-87
2023/07/13 04:18:03;;;;;;;4.18;3.47;;;;;;;;;;5153027;27;20227;-88
2023/07/13 04:20:29;;;;;;;4.35;3.72;;;;;;;;;;5152800;27;20294;-89
2023/07/13 04:22:57;;;;;;;4.22;3.92;;;;;;;;;;5152383;27;20219;-89
2023/07/13 04:25:23;;;;;;;3.92;3.60;;;;;;;;;;5152270;27;20603;-86
2023/07/13 04:27:52;;;;;;;3.78;3.58;;;;;;;;;;5152264;27;20227;-87
2023/07/13 04:30:20;;;;;;;4.32;3.90;;;;;;;;;;5152356;27;20260;-87
2023/07/13 04:32:47;;;;;;;4.80;4.35;;;;;;;;;;5152453;27;20195;-86
2023/07/13 04:35:14;;;;;;;5.28;4.25;;;;;;;;;;5152283;27;20253;-87
2023/07/13 04:37:41;;;;;;;5.00;4.50;;;;;;;;;;5152328;27;20227;-87
2023/07/13 04:40:11;;;;;;;5.05;4.57;;;;;;;;;;5152408;27;20231;-88
2023/07/13 04:42:39;;;;;;;5.72;4.18;;;;;;;;;;5152646;27;20259;-87
2023/07/13 04:45:08;;;;;;;5.18;4.68;;;;;;;;;;5152511;27;20195;-89
2023/07/13 04:47:35;;;;;;;4.32;4.03;;;;;;;;;;5151838;27;20201;-88
2023/07/13 04:50:02;;;;;;;5.00;4.60;;;;;;;;;;5153217;27;20195;-87
2023/07/13 04:52:28;;;;;;;5.93;5.32;;;;;;;;;;5152080;27;20199;-86
2023/07/13 04:54:55;;;;;;;6.03;5.25;;;;;;;;;;5151558;27;20206;-86
2023/07/13 04:57:22;;;;;;;5.47;4.97;;;;;;;;;;5151516;27;20223;-87
2023/07/13 04:59:49;;;;;;;5.97;4.97;;;;;;;;;;5152021;27;20208;-88
2023/07/13 05:02:18;;;;;;;7.10;5.10;;;;;;;;;;5152379;27;20210;-88
2023/07/13 05:04:47;;;;;;;5.60;5.03;;;;;;;;;;5160238;27;20196;-87
2023/07/13 05:07:14;;;;;;;7.38;4.90;;;;;;;;;;5152108;27;20574;-88
2023/07/13 05:09:41;;;;;;;5.07;4.68;;;;;;;;;;5151644;27;20187;-88
2023/07/13 05:12:09;;;;;;;7.60;6.90;;;;;;;;;;5151557;27;20272;-88
2023/07/13 05:14:36;;;;;;;5.00;4.53;;;;;;;;;;5151558;27;20187;-88
2023/07/13 05:17:03;;;;;;;6.85;6.10;;;;;;;;;;5151935;27;20194;-88
2023/07/13 05:19:31;;;;;;;5.78;5.28;;;;;;;;;;5152352;27;20275;-87
2023/07/13 05:21:58;;;;;;;5.80;5.13;;;;;;;;;;5151701;27;20203;-88
2023/07/13 05:24:26;;;;;;;6.07;5.55;;;;;;;;;;5151997;27;20206;-89
2023/07/13 05:26:53;;;;;;;5.70;5.30;;;;;;;;;;5153090;27;20680;-87
2023/07/13 05:29:19;;;;;;;5.35;4.53;;;;;;;;;;5153124;27;20215;-88
2023/07/13 05:31:46;;;;;;;6.03;5.60;;;;;;;;;;5153203;27;20203;-87
2023/07/13 05:34:14;;;;;;;5.85;5.38;;;;;;;;;;5152760;27;20279;-89
2023/07/13 05:36:42;;;;;;;6.38;5.75;;;;;;;;;;5152466;27;20188;-88
2023/07/13 05:39:23;;;;;;;6.07;4.90;;;;;;;;;;5152130;27;20223;-87
2023/07/13 05:41:55;;;;;;;5.95;5.45;;;;;;;;;;5151354;27;20195;-88
2023/07/13 05:44:22;;;;;;;6.10;5.50;;;;;;;;;;5151141;27;20252;-87
2023/07/13 05:46:48;;;;;;;5.32;4.88;;;;;;;;;;5152017;27;20192;-88
2023/07/13 05:49:16;;;;;;;7.38;4.75;;;;;;;;;;5155506;27;20187;-88
2023/07/13 05:51:44;;;;;;;5.40;4.93;;;;;;;;;;5155342;27;20200;-88
2023/07/13 05:54:13;;;;;;;5.72;5.18;;;;;;;;;;5155043;27;20195;-89
2023/07/13 05:56:40;;;;;;;9.35;5.55;;;;;;;;;;5155392;27;20206;-88
2023/07/13 05:59:06;;;;;;;6.82;5.35;;;;;;;;;;5157043;27;20245;-87
2023/07/13 06:01:33;;;;;;;8.18;6.57;;;;;;;;;;5161117;27;20199;-89
2023/07/13 06:04:00;;;;;;;7.10;6.45;;;;;;;;;;5160543;27;20691;-88
2023/07/13 06:06:27;;;;;;;7.80;6.20;;;;;;;;;;5156990;27;20199;-88
2023/07/13 06:08:55;;;;;;;7.38;6.53;;;;;;;;;;5159080;27;20581;-88
2023/07/13 06:11:24;;;;;;;7.30;6.45;;;;;;;;;;5156652;27;20283;-89
2023/07/13 06:13:51;;;;;;;6.82;5.78;;;;;;;;;;5154650;27;20273;-87
2023/07/13 06:16:17;;;;;;;8.18;6.68;;;;;;;;;;5155328;27;20196;-87
2023/07/13 06:18:45;;;;;;;6.85;6.10;;;;;;;;;;5154506;27;20226;-88
2023/07/13 06:21:13;;;;;;;5.53;5.07;;;;;;;;;;5155950;27;20199;-88
2023/07/13 06:23:42;;;;;;;6.25;5.65;;;;;;;;;;5156251;27;20211;-88
2023/07/13 06:26:10;;;;;;;6.00;5.38;;;;;;;;;;5155796;27;20282;-88
2023/07/13 06:28:38;;;;;;;5.22;4.82;;;;;;;;;;5157423;27;20643;-88
2023/07/13 06:31:06;;;;;;;5.10;4.70;;;;;;;;;;5163951;27;20192;-85
2023/07/13 06:33:33;;;;;;;5.20;4.70;;;;;;;;;;5171550;27;20200;-85
2023/07/13 06:36:00;;;;;;;7.50;4.70;;;;;;;;;;5164892;27;20204;-89
2023/07/13 06:38:27;;;;;;;5.15;4.65;;;;;;;;;;5155989;27;20261;-89
2023/07/13 06:40:54;;;;;;;5.93;4.68;;;;;;;;;;5153832;27;20191;-89
2023/07/13 06:43:24;;;;;;;8.75;5.25;;;;;;;;;;5153370;27;20676;-88
2023/07/13 06:45:55;;;;;;;6.13;5.63;;;;;;;;;;5153368;27;20279;-88
2023/07/13 06:48:22;;;;;;;6.15;5.65;;;;;;;;;;5153443;27;20195;-88
2023/07/13 06:50:50;;;;;;;5.88;5.40;;;;;;;;;;5153520;27;20257;-88
2023/07/13 06:53:18;;;;;;;4.43;4.03;;;;;;;;;;5154016;27;20199;-88
2023/07/13 06:55:46;;;;;;;5.60;5.10;;;;;;;;;;5153762;27;20210;-88
2023/07/13 06:58:13;;;;;;;5.50;5.10;;;;;;;;;;5153069;27;20223;-88
2023/07/13 07:00:43;;;;;;;5.38;4.82;;;;;;;;;;5154629;27;20188;-90
2023/07/13 07:03:11;;;;;;;7.07;5.57;;;;;;;;;;5155697;27;20208;-89
2023/07/13 07:05:37;;;;;;;5.53;5.13;;;;;;;;;;5153683;27;20195;-89
2023/07/13 07:08:05;;;;;;;8.05;5.50;;;;;;;;;;5152881;27;20199;-88
2023/07/13 07:10:32;;;;;;;6.28;5.68;;;;;;;;;;5152686;27;20197;-88
2023/07/13 07:13:01;;;;;;;6.07;5.18;;;;;;;;;;5155180;27;20472;-87
2023/07/13 07:15:30;;;;;;;6.05;5.38;;;;;;;;;;5156850;27;20632;-87
2023/07/13 07:17:58;;;;;;;6.20;5.70;;;;;;;;;;5155930;27;20196;-88
2023/07/13 07:20:27;;;;;;;5.60;5.07;;;;;;;;;;5155435;27;20199;-88
2023/07/13 07:22:55;;;;;;;5.00;4.75;;;;;;;;;;5154662;27;20381;-88
2023/07/13 07:25:21;;;;;;;5.15;4.72;;;;;;;;;;5155146;27;20220;-89
2023/07/13 07:27:49;;;;;;;5.03;4.72;;;;;;;;;;5153491;27;20754;-88
2023/07/13 07:30:16;;;;;;;5.55;5.15;;;;;;;;;;5152337;27;20191;-88
2023/07/13 07:32:43;;;;;;;6.05;5.47;;;;;;;;;;5152541;27;20207;-89
2023/07/13 07:35:11;;;;;;;5.63;5.13;;;;;;;;;;5153081;27;20226;-88
2023/07/13 07:37:39;;;;;;;5.47;5.07;;;;;;;;;;5152351;27;20195;-88
2023/07/13 07:40:07;;;;;;;6.75;5.03;;;;;;;;;;5152789;27;20227;-89
2023/07/13 07:42:35;;;;;;;6.97;5.18;;;;;;;;;;5154256;27;20591;-86
2023/07/13 07:45:01;;;;;;;5.25;4.85;;;;;;;;;;5156359;27;20747;-88
2023/07/13 07:47:28;;;;;;;5.28;4.97;;;;;;;;;;5170195;27;20210;-86
2023/07/13 07:49:56;;;;;;;9.80;5.03;;;;;;;;;;5173140;27;20219;-88
2023/07/13 07:52:25;;;;;;;5.28;4.97;;;;;;;;;;5157651;27;20205;-88
2023/07/13 07:54:51;;;;;;;5.03;4.75;;;;;;;;;;5154036;27;20207;-88
2023/07/13 07:57:19;;;;;;;6.10;5.28;;;;;;;;;;5152173;27;20202;-88
2023/07/13 07:59:46;;;;;;;5.18;4.82;;;;;;;;;;5151609;27;20734;-88
2023/07/13 08:02:14;;;;;;;5.45;4.95;;;;;;;;;;5152402;27;20199;-87
2023/07/13 08:04:41;;;;;;;5.28;4.93;;;;;;;;;;5151869;27;20260;-87
2023/07/13 08:07:08;;;;;;;5.95;5.40;;;;;;;;;;5151121;27;20200;-87
2023/07/13 08:09:37;;;;;;;5.35;5.00;;;;;;;;;;5152784;27;20206;-88
2023/07/13 08:12:04;;;;;;;5.28;4.88;;;;;;;;;;5151330;27;20234;-88
2023/07/13 08:14:31;;;;;;;5.43;4.70;;;;;;;;;;5151954;27;20195;-87
2023/07/13 08:16:58;;;;;;;5.30;4.93;;;;;;;;;;5151707;27;20207;-89
2023/07/13 08:19:25;;;;;;;7.28;5.10;;;;;;;;;;5151582;27;20251;-89
2023/07/13 08:21:52;;;;;;;5.70;5.18;;;;;;;;;;5151273;27;20672;-88
2023/07/13 08:24:19;;;;;;;5.18;4.78;;;;;;;;;;5152175;27;20199;-88
2023/07/13 08:26:47;;;;;;;5.65;4.85;;;;;;;;;;5151623;27;20227;-88
2023/07/13 08:29:15;;;;;;;5.55;5.15;;;;;;;;;;5151488;27;20207;-88
2023/07/13 08:31:42;;;;;;;5.43;5.03;;;;;;;;;;5151681;27;20652;-88
2023/07/13 08:34:08;;;;;;;6.85;5.38;;;;;;;;;;5151857;27;20210;-88
2023/07/13 08:36:36;;;;;;;6.43;4.82;;;;;;;;;;5152274;27;20199;-87
2023/07/13 08:39:10;;;;;;;6.75;5.63;;;;;;;;;;5151767;27;20271;-89
2023/07/13 08:41:41;;;;;;;5.03;4.70;;;;;;;;;;5152031;27;20195;-87
2023/07/13 08:44:16;;;;;;;5.50;4.93;;;;;;;;;;5151428;27;20271;-87
2023/07/13 08:46:43;;;;;;;5.38;4.97;;;;;;;;;;5151646;27;20270;-88
2023/07/13 08:49:13;;;;;;;5.07;4.78;;;;;;;;;;5151797;27;20199;-87
2023/07/13 08:51:43;;;;;;;4.80;4.50;;;;;;;;;;5151560;27;20278;-87
2023/07/13 08:54:23;;;;;;;6.43;4.93;;;;;;;;;;5151133;27;20206;-86
2023/07/13 08:56:52;;;;;;;7.35;5.95;;;;;;;;;;5151349;27;20294;-88
2023/07/13 08:59:23;;;;;;;5.47;4.97;;;;;;;;;;5150809;27;20242;-87
2023/07/13 09:01:58;;;;;;;5.50;4.97;;;;;;;;;;5151308;27;20640;-88
2023/07/13 09:04:30;;;;;;;5.63;4.63;;;;;;;;;;5150935;27;20205;-87
2023/07/13 09:07:00;;;;;;;5.00;4.43;;;;;;;;;;5151381;27;20213;-88
2023/07/13 09:09:33;;;;;;;4.97;4.57;;;;;;;;;;5151105;27;20236;-87
2023/07/13 09:12:03;;;;;;;7.18;4.50;;;;;;;;;;5151575;27;20240;-88
2023/07/13 09:14:43;;;;;;;5.63;5.05;;;;;;;;;;5151492;27;20749;-87
2023/07/13 09:17:16;;;;;;;8.40;5.80;;;;;;;;;;5152029;27;20211;-87
2023/07/13 09:19:43;;;;;;;5.22;4.68;;;;;;;;;;5156125;27;20615;-87
2023/07/13 09:22:18;;;;;;;5.82;3.97;;;;;;;;;;5155493;27;20211;-86
2023/07/13 09:24:52;;;;;;;5.63;5.18;;;;;;;;;;5158449;27;20274;-88
2023/07/13 09:27:24;;;;;;;6.70;6.00;;;;;;;;;;5158224;27;20321;-88
2023/07/13 09:29:59;;;;;;;5.38;5.05;;;;;;;;;;5159085;27;20184;-87
2023/07/13 09:32:27;;;;;;;6.65;5.40;;;;;;;;;;5159724;27;20298;-88
2023/07/13 09:34:55;;;;;;;6.97;5.80;;;;;;;;;;5162642;27;20274;-88
2023/07/13 09:37:24;;;;;;;9.32;6.15;;;;;;;;;;5164071;27;20188;-89
2023/07/13 09:39:52;;;;;;;4.53;4.22;;;;;;;;;;5168789;27;20284;-89
2023/07/13 09:42:21;;;;;;;5.45;5.05;;;;;;;;;;5163123;27;20223;-88
2023/07/13 09:44:58;;;;;;;5.82;5.10;;;;;;;;;;5163958;27;20267;-88
2023/07/13 09:47:26;;;;;;;5.78;5.13;;;;;;;;;;5159318;27;20202;-88
2023/07/13 09:49:58;;;;;;;5.20;4.80;;;;;;;;;;5159325;27;20191;-88
2023/07/13 09:52:25;;;;;;;5.05;4.65;;;;;;;;;;5159120;27;20211;-87
2023/07/13 09:54:58;;;;;;;6.57;5.45;;;;;;;;;;5159690;27;20185;-87
2023/07/13 09:57:26;;;;;;;7.05;5.30;;;;;;;;;;5159163;27;20211;-87
2023/07/13 09:59:58;;;;;;;4.20;3.22;;;;;;;;;;5161670;27;20227;-88
2023/07/13 10:02:27;;;;;;;5.03;3.10;;;;;;;;;;5162509;27;20188;-88
2023/07/13 10:04:58;;;;;;;3.28;2.55;;;;;;;;;;5162240;27;20236;-87
2023/07/13 10:07:25;;;;;;;8.27;2.85;;;;;;;;;;5160747;27;20319;-89
2023/07/13 10:09:54;;;;;;;2.78;2.65;;;;;;;;;;5162893;27;20206;-85
2023/07/13 10:12:23;;;;;;;3.67;2.78;;;;;;;;;;5162089;27;20287;-87
2023/07/13 10:14:52;;;;;;;2.85;2.75;;;;;;;;;;5157831;27;20283;-87
2023/07/13 10:17:21;;;;;;;4.75;3.00;;;;;;;;;;5157361;27;20220;-89
2023/07/13 10:19:49;;;;;;;3.33;3.03;;;;;;;;;;5158552;27;20279;-87
2023/07/13 10:22:22;;;;;;;3.13;2.85;;;;;;;;;;5158082;27;20203;-87
2023/07/13 10:24:50;;;;;;;3.28;3.10;;;;;;;;;;5159103;27;20546;-86
2023/07/13 10:27:19;;;;;;;3.30;2.95;;;;;;;;;;5156488;27;20234;-87
2023/07/13 10:29:48;;;;;;;3.28;2.67;;;;;;;;;;5157292;27;20192;-88
2023/07/13 10:32:16;;;;;;;5.38;3.10;;;;;;;;;;5156685;27;20655;-87
2023/07/13 10:34:46;;;;;;;3.25;3.05;;;;;;;;;;5158233;27;20200;-87
2023/07/13 10:37:18;;;;;;;2.80;2.60;;;;;;;;;;5156389;27;20195;-88
2023/07/13 10:39:45;;;;;;;5.38;2.60;;;;;;;;;;5158893;27;20242;-87
2023/07/13 10:42:16;;;;;;;3.58;3.00;;;;;;;;;;5159206;27;20195;-88
2023/07/13 10:44:43;;;;;;;4.72;2.70;;;;;;;;;;5158282;27;20196;-87
2023/07/13 10:47:14;;;;;;;4.75;3.03;;;;;;;;;;5156907;27;20620;-86
2023/07/13 10:49:42;;;;;;;3.47;3.05;;;;;;;;;;5158587;27;20203;-87
2023/07/13 10:52:39;;;;;;;3.95;3.25;;;;;;;;;;5157357;27;20196;-87
2023/07/13 10:55:08;;;;;;;3.25;3.08;;;;;;;;;;5156568;27;20260;-88
2023/07/13 10:57:43;;;;;;;3.33;3.00;;;;;;;;;;5158746;27;20574;-87
2023/07/13 11:00:16;;;;;;;3.17;2.90;;;;;;;;;;5157878;27;20229;-87
2023/07/13 11:02:42;;;;;;;5.90;3.20;;;;;;;;;;5155969;27;20211;-87
2023/07/13 11:05:19;;;;;;;4.95;3.05;;;;;;;;;;5157146;27;20286;-88
2023/07/13 11:07:55;;;;;;;10.52;3.08;;;;;;;;;;5156842;27;20203;-89
2023/07/13 11:10:37;;;;;;;3.67;3.47;;;;;;;;;;5157381;27;20183;-88
2023/07/13 11:13:04;;;;;;;3.25;2.88;;;;;;;;;;5158142;27;20282;-85
2023/07/13 11:15:33;;;;;;;5.30;3.40;;;;;;;;;;5171479;27;20224;-86
2023/07/13 11:18:03;;;;;;;3.72;3.40;;;;;;;;;;5170749;27;20300;-86
2023/07/13 11:20:39;;;;;;;4.05;3.75;;;;;;;;;;5172045;27;20215;-87
2023/07/13 11:23:23;;;;;;;5.00;4.55;;;;;;;;;;5172371;27;20209;-86
2023/07/13 11:25:52;;;;;;;3.60;3.03;;;;;;;;;;5143058;27;20256;-88
2023/07/13 11:28:26;;;;;;;5.40;3.83;;;;;;;;;;5155738;27;20238;-86
2023/07/13 11:31:05;;;;;;;4.90;3.17;;;;;;;;;;5156553;27;20199;-87
2023/07/13 11:33:49;;;;;;;3.08;2.88;;;;;;;;;;5156055;27;20235;-88
2023/07/13 11:36:21;;;;;;;3.63;2.85;;;;;;;;;;5155455;27;20187;-87
2023/07/13 11:38:56;;;;;;;4.20;3.10;;;;;;;;;;5154741;27;20677;-88
2023/07/13 11:41:28;;;;;;;3.55;2.95;;;;;;;;;;5154726;27;20219;-87
2023/07/13 11:43:56;;;;;;;3.03;2.83;;;;;;;;;;5154710;27;20203;-87
2023/07/13 11:46:24;;;;;;;4.03;3.17;;;;;;;;;;5154807;27;20203;-86
2023/07/13 11:48:52;;;;;;;12.27;3.88;;;;;;;;;;5155293;27;20195;-88
2023/07/13 11:51:22;;;;;;;3.22;2.80;;;;;;;;;;5156280;27;20263;-87
2023/07/13 11:53:51;;;;;;;3.03;2.78;;;;;;;;;;5157401;27;20203;-88
2023/07/13 11:56:19;;;;;;;3.35;3.05;;;;;;;;;;5156297;27;20195;-87
2023/07/13 11:58:49;;;;;;;2.88;2.63;;;;;;;;;;5157409;27;20195;-87
2023/07/13 12:01:19;;;;;;;6.32;3.10;;;;;;;;;;5154775;27;20211;-88
2023/07/13 12:03:50;;;;;;;19.42;15.00;;;;;;;;;;5156042;27;20263;-87
2023/07/13 12:06:28;;;;;;;3.08;2.78;;;;;;;;;;5155195;27;20629;-85
2023/07/13 12:08:59;;;;;;;2.80;2.65;;;;;;;;;;5155864;27;20252;-88
2023/07/13 12:11:26;;;;;;;3.33;2.95;;;;;;;;;;5154369;27;20215;-86
2023/07/13 12:13:55;;;;;;;2.55;2.35;;;;;;;;;;5154674;27;20577;-87
2023/07/13 12:16:26;;;;;;;3.83;2.72;;;;;;;;;;5154219;27;20676;-87
2023/07/13 12:18:54;;;;;;;4.78;3.13;;;;;;;;;;5154533;27;20523;-87
2023/07/13 12:21:23;;;;;;;2.90;2.60;;;;;;;;;;5154997;27;20311;-86
2023/07/13 12:23:51;;;;;;;4.38;2.95;;;;;;;;;;5153222;27;20612;-86
2023/07/13 12:26:25;;;;;;;3.60;3.20;;;;;;;;;;5152817;27;20256;-87
2023/07/13 12:28:56;;;;;;;3.33;3.05;;;;;;;;;;5152493;27;20271;-85
2023/07/13 12:31:34;;;;;;;4.85;3.10;;;;;;;;;;5154790;27;20203;-86
2023/07/13 12:34:02;;;;;;;3.00;2.80;;;;;;;;;;5153668;27;20686;-86
2023/07/13 12:36:31;;;;;;;7.50;5.47;;;;;;;;;;5154035;27;20195;-87
2023/07/13 12:39:08;;;;;;;6.28;2.50;;;;;;;;;;5159100;27;20200;-87
2023/07/13 12:41:35;;;;;;;5.70;2.70;;;;;;;;;;5158556;27;20230;-86
2023/07/13 12:44:03;;;;;;;2.78;2.65;;;;;;;;;;5152577;27;20214;-87
2023/07/13 12:46:32;;;;;;;3.17;2.58;;;;;;;;;;5152037;27;20198;-87
2023/07/13 12:49:00;;;;;;;2.95;2.67;;;;;;;;;;5154680;27;20195;-86
2023/07/13 12:51:28;;;;;;;6.70;2.50;;;;;;;;;;5153371;27;20203;-88
2023/07/13 12:53:59;;;;;;;3.03;2.83;;;;;;;;;;5153408;27;20259;-87
2023/07/13 12:56:27;;;;;;;3.33;2.60;;;;;;;;;;5153441;27;20206;-87
2023/07/13 12:59:00;;;;;;;2.85;2.67;;;;;;;;;;5158226;27;20199;-87
2023/07/13 13:01:30;;;;;;;2.92;2.78;;;;;;;;;;5157933;27;20219;-87
2023/07/13 13:03:57;;;;;;;2.88;2.65;;;;;;;;;;5156998;27;20187;-86
2023/07/13 13:06:25;;;;;;;5.00;2.95;;;;;;;;;;5156673;27;20207;-88
2023/07/13 13:08:53;;;;;;;2.95;2.75;;;;;;;;;;5156921;27;20203;-87
2023/07/13 13:11:22;;;;;;;3.17;2.88;;;;;;;;;;5156142;27;20227;-87
2023/07/13 13:13:50;;;;;;;3.28;2.63;;;;;;;;;;5156929;27;20195;-86
2023/07/13 13:16:23;;;;;;;3.20;2.95;;;;;;;;;;5157468;27;20196;-87
2023/07/13 13:18:56;;;;;;;6.95;3.13;;;;;;;;;;5158247;27;20284;-86
2023/07/13 13:21:24;;;;;;;3.50;3.05;;;;;;;;;;5158166;27;20600;-87
2023/07/13 13:23:53;;;;;;;3.88;3.00;;;;;;;;;;5155769;27;20221;-87
2023/07/13 13:26:32;;;;;;;5.10;2.60;;;;;;;;;;5155922;27;20207;-87
2023/07/13 13:29:00;;;;;;;3.00;2.47;;;;;;;;;;5155758;27;20324;-86
2023/07/13 13:31:26;;;;;;;6.90;2.47;;;;;;;;;;5156648;27;20231;-86
2023/07/13 13:33:56;;;;;;;3.13;2.60;;;;;;;;;;5158594;27;21072;-87
2023/07/13 13:36:26;;;;;;;5.15;2.45;;;;;;;;;;5157566;27;20207;-86
2023/07/13 13:38:55;;;;;;;2.63;2.53;;;;;;;;;;5160365;27;20188;-87
2023/07/13 13:41:30;;;;;;;5.22;2.72;;;;;;;;;;5158382;27;20613;-87
2023/07/13 13:43:58;;;;;;;3.47;2.58;;;;;;;;;;5156725;27;20275;-86
2023/07/13 13:46:28;;;;;;;2.58;2.40;;;;;;;;;;5157179;27;20251;-86
2023/07/13 13:48:57;;;;;;;3.65;2.40;;;;;;;;;;5156353;27;20223;-87
2023/07/13 13:51:25;;;;;;;6.90;2.30;;;;;;;;;;5156172;27;20283;-88
2023/07/13 13:53:53;;;;;;;4.30;2.90;;;;;;;;;;5156090;27;20213;-87
2023/07/13 13:56:20;;;;;;;3.45;2.97;;;;;;;;;;5154626;27;20195;-87
2023/07/13 13:58:47;;;;;;;4.40;2.40;;;;;;;;;;5154729;27;20196;-88
2023/07/13 14:01:16;;;;;;;2.63;2.40;;;;;;;;;;5154356;27;20223;-87
2023/07/13 14:03:43;;;;;;;2.90;2.70;;;;;;;;;;5156239;27;20367;-87
2023/07/13 14:06:15;;;;;;;4.50;2.83;;;;;;;;;;5156456;27;20199;-89
2023/07/13 14:08:41;;;;;;;3.42;2.38;;;;;;;;;;5154912;27;20461;-87
2023/07/13 14:11:12;;;;;;;2.85;2.65;;;;;;;;;;5154547;27;20282;-86
2023/07/13 14:13:40;;;;;;;3.72;2.80;;;;;;;;;;5154617;27;20268;-88
2023/07/13 14:16:10;;;;;;;4.78;2.58;;;;;;;;;;5154913;27;20227;-87
2023/07/13 14:18:38;;;;;;;2.95;2.63;;;;;;;;;;5155974;27;20196;-87
2023/07/13 14:21:09;;;;;;;5.30;3.05;;;;;;;;;;5155767;27;20246;-87
2023/07/13 14:23:48;;;;;;;3.45;3.25;;;;;;;;;;5154942;27;20198;-86
2023/07/13 14:26:16;;;;;;;2.78;2.58;;;;;;;;;;5154199;27;20195;-87
2023/07/13 14:28:43;;;;;;;4.78;2.70;;;;;;;;;;5155980;27;20225;-86
2023/07/13 14:31:11;;;;;;;4.60;3.22;;;;;;;;;;5154721;27;20207;-87
2023/07/13 14:33:40;;;;;;;2.95;2.58;;;;;;;;;;5154843;27;20259;-87
2023/07/13 14:36:21;;;;;;;3.60;3.30;;;;;;;;;;5154262;27;20187;-86
2023/07/13 14:38:51;;;;;;;2.90;2.70;;;;;;;;;;5155242;27;20678;-87
2023/07/13 14:41:19;;;;;;;2.95;2.55;;;;;;;;;;5154757;27;20310;-87
2023/07/13 14:43:50;;;;;;;4.47;2.95;;;;;;;;;;5155975;27;20207;-86
2023/07/13 14:46:25;;;;;;;3.30;2.92;;;;;;;;;;5161217;27;20267;-87
2023/07/13 14:48:52;;;;;;;3.17;2.92;;;;;;;;;;5174282;27;20269;-87
2023/07/13 14:51:25;;;;;;;5.07;3.00;;;;;;;;;;5169610;27;20274;-88
2023/07/13 14:53:54;;;;;;;3.47;3.08;;;;;;;;;;5155865;27;20196;-87